createdAt,value
2022-08-22T00:01:15.118Z,101469.72
2022-08-22T00:02:57.967Z,101477.63
2022-08-22T00:03:11.474Z,101493.72
2022-08-22T00:03:58.957Z,101470.56
2022-08-22T00:06:45.915Z,101471.44
2022-08-22T00:09:37.286Z,101475.34
2022-08-22T00:12:15.208Z,101475.84
2022-08-22T00:15:03.962Z,101472.44
2022-08-22T00:17:40.329Z,101471.91
2022-08-22T00:20:28.320Z,101474.81
2022-08-22T00:23:21.315Z,101469.69
2022-08-22T00:26:09.442Z,101476.88
2022-08-22T00:28:49.312Z,101476.53
2022-08-22T00:31:27.073Z,101480.13
2022-08-22T00:34:06.170Z,101473.09
2022-08-22T00:36:56.464Z,101480.09
2022-08-22T00:39:40.534Z,101473.59
2022-08-22T00:42:32.053Z,101477.84
2022-08-22T00:45:22.851Z,101474.25
2022-08-22T00:48:08.002Z,101472.38
2022-08-22T00:51:18.565Z,101481.75
2022-08-22T00:53:52.730Z,101478.69
2022-08-22T00:56:25.085Z,101481.59
2022-08-22T00:59:42.250Z,101477.47
2022-08-22T01:02:29.669Z,101477.31
2022-08-22T01:05:21.952Z,101480.22
2022-08-22T01:08:07.249Z,101491.16
2022-08-22T01:11:01.261Z,101484.13
2022-08-22T01:13:48.135Z,101474.06
2022-08-22T01:16:17.722Z,101488.59
2022-08-22T01:19:06.742Z,101490.63
2022-08-22T01:21:43.411Z,101479.16
2022-08-22T01:25:17.672Z,101483.38
2022-08-22T01:28:18.944Z,101482.84
2022-08-22T01:31:10.778Z,101485.22
2022-08-22T01:33:38.203Z,101484.03
2022-08-22T01:36:30.407Z,101481.47
2022-08-22T01:39:01.636Z,101487.09
2022-08-22T01:41:39.406Z,101484.53
2022-08-22T01:44:19.136Z,101481.97
2022-08-22T01:46:51.575Z,101479.94
2022-08-22T01:49:24.468Z,101483.50
2022-08-22T01:52:01.843Z,101477.19
2022-08-22T01:55:17.153Z,101481.97
2022-08-22T01:58:17.795Z,101476.47
2022-08-22T02:01:06.465Z,101476.09
2022-08-22T02:03:51.458Z,101473.66
2022-08-22T02:06:24.504Z,101473.97
2022-08-22T02:09:02.943Z,101471.41
2022-08-22T02:11:46.517Z,101474.31
2022-08-22T02:14:54.692Z,101472.75
2022-08-22T02:17:33.390Z,101474.47
2022-08-22T02:20:23.253Z,101472.59
2022-08-22T02:23:19.126Z,101480.63
2022-08-22T02:26:03.779Z,101470.41
2022-08-22T02:29:04.688Z,101469.06
2022-08-22T02:31:47.954Z,101463.13
2022-08-22T02:34:22.309Z,101463.66
2022-08-22T02:37:03.306Z,101465.22
2022-08-22T02:39:38.448Z,101453.94
2022-08-22T02:42:32.777Z,101455.50
2022-08-22T02:45:21.962Z,101455.50
2022-08-22T02:48:13.571Z,101462.69
2022-08-22T02:50:52.471Z,101457.22
2022-08-22T02:53:55.873Z,101452.75
2022-08-22T02:56:32.325Z,101446.44
2022-08-22T02:59:30.771Z,101453.09
2022-08-22T03:01:57.933Z,101453.09
2022-08-22T03:04:30.477Z,101456.00
2022-08-22T03:07:22.583Z,101447.44
2022-08-22T03:09:51.739Z,101445.88
2022-08-22T03:12:25.470Z,101434.56
2022-08-22T03:15:11.824Z,101440.88
2022-08-22T03:17:51.005Z,101436.28
2022-08-22T03:20:38.781Z,101434.25
2022-08-22T03:23:56.884Z,101439.41
2022-08-22T03:26:33.486Z,101437.34
2022-08-22T03:29:08.842Z,101432.75
2022-08-22T03:31:35.974Z,101439.94
2022-08-22T03:34:22.650Z,101441.81
2022-08-22T03:37:21.009Z,101447.09
2022-08-22T03:39:59.817Z,101440.78
2022-08-22T03:42:54.164Z,101440.78
2022-08-22T03:45:51.427Z,101435.31
2022-08-22T03:48:23.756Z,101435.16
2022-08-22T03:51:18.105Z,101419.78
2022-08-22T03:53:59.887Z,101420.81
2022-08-22T03:56:58.895Z,101412.25
2022-08-22T04:00:05.941Z,101425.22
2022-08-22T04:02:43.855Z,101422.59
2022-08-22T04:05:44.039Z,101424.81
2022-08-22T04:08:26.422Z,101424.28
2022-08-22T04:11:21.672Z,101432.13
2022-08-22T04:14:34.122Z,101426.81
2022-08-22T04:17:35.178Z,101426.13
2022-08-22T04:20:26.675Z,101426.97
2022-08-22T04:23:26.625Z,101428.84
2022-08-22T04:26:01.863Z,101428.16
2022-08-22T04:28:52.996Z,101441.28
2022-08-22T04:31:29.542Z,101445.19
2022-08-22T04:34:24.927Z,101437.66
2022-08-22T04:37:09.849Z,101445.31
2022-08-22T04:39:41.724Z,101446.66
2022-08-22T04:42:32.246Z,101442.22
2022-08-22T04:45:23.587Z,101447.84
2022-08-22T04:48:27.023Z,101443.50
2022-08-22T04:51:08.182Z,101438.78
2022-08-22T04:53:55.021Z,101439.94
2022-08-22T04:56:46.060Z,101431.03
2022-08-22T04:59:17.783Z,101444.84
2022-08-22T05:01:46.779Z,101446.56
2022-08-22T05:04:26.331Z,101443.16
2022-08-22T05:07:15.818Z,101450.97
2022-08-22T05:09:48.988Z,101455.03
2022-08-22T05:12:25.137Z,101456.03
2022-08-22T05:15:07.263Z,101461.34
2022-08-22T05:17:38.821Z,101462.19
2022-08-22T05:20:10.707Z,101467.66
2022-08-22T05:22:48.762Z,101463.06
2022-08-22T05:25:21.912Z,101460.16
2022-08-22T05:27:53.307Z,101458.97
2022-08-22T05:30:28.289Z,101466.00
2022-08-22T05:33:32.203Z,101458.66
2022-08-22T05:36:09.038Z,101463.81
2022-08-22T05:38:41.320Z,101465.69
2022-08-22T05:41:17.452Z,101473.16
2022-08-22T05:43:48.990Z,101469.59
2022-08-22T05:46:47.986Z,101472.31
2022-08-22T05:49:22.357Z,101480.03
2022-08-22T05:52:06.757Z,101470.22
2022-08-22T05:54:56.945Z,101472.63
2022-08-22T05:57:35.217Z,101481.34
2022-08-22T06:00:12.745Z,101476.41
2022-08-22T06:02:48.298Z,101479.53
2022-08-22T06:05:23.706Z,101477.16
2022-08-22T06:07:53.507Z,101470.19
2022-08-22T06:10:23.064Z,101478.59
2022-08-22T06:13:00.140Z,101485.31
2022-08-22T06:15:51.656Z,101476.47
2022-08-22T06:18:26.714Z,101470.34
2022-08-22T06:20:58.177Z,101475.47
2022-08-22T06:23:27.802Z,101478.56
2022-08-22T06:25:59.536Z,101484.25
2022-08-22T06:28:54.780Z,101485.50
2022-08-22T06:31:43.287Z,101483.97
2022-08-22T06:34:15.678Z,101485.88
2022-08-22T06:36:48.438Z,101486.41
2022-08-22T06:39:36.619Z,101488.81
2022-08-22T06:42:16.355Z,101491.03
2022-08-22T06:44:50.034Z,101492.09
2022-08-22T06:47:22.831Z,101495.69
2022-08-22T06:49:54.441Z,101498.66
2022-08-22T06:52:25.003Z,101507.72
2022-08-22T06:55:00.262Z,101509.44
2022-08-22T06:57:34.770Z,101507.75
2022-08-22T07:00:07.510Z,101502.81
2022-08-22T07:02:40.810Z,101503.00
2022-08-22T07:05:13.838Z,101507.78
2022-08-22T07:07:40.354Z,101504.88
2022-08-22T07:10:07.037Z,101512.06
2022-08-22T07:12:37.772Z,101516.53
2022-08-22T07:15:20.663Z,101510.88
2022-08-22T07:17:53.622Z,101506.41
2022-08-22T07:20:27.902Z,101515.69
2022-08-22T07:23:23.516Z,101514.13
2022-08-22T07:26:06.674Z,101516.00
2022-08-22T07:28:58.666Z,101507.44
2022-08-22T07:31:39.874Z,101510.50
2022-08-22T07:34:38.098Z,101508.09
2022-08-22T07:37:31.330Z,101508.06
2022-08-22T07:40:00.917Z,101507.16
2022-08-22T07:42:30.481Z,101512.63
2022-08-22T07:45:29.355Z,101502.88
2022-08-22T07:48:25.548Z,101497.16
2022-08-22T07:51:17.550Z,101503.13
2022-08-22T07:54:00.992Z,101505.47
2022-08-22T07:56:33.257Z,101497.00
2022-08-22T07:59:12.834Z,101500.56
2022-08-22T08:01:45.873Z,101500.69
2022-08-22T08:04:20.865Z,101500.81
2022-08-22T08:06:51.370Z,101497.00
2022-08-22T08:09:19.635Z,101498.66
2022-08-22T08:11:49.171Z,101502.19
2022-08-22T08:14:23.429Z,101487.75
2022-08-22T08:17:23.689Z,101485.09
2022-08-22T08:19:51.885Z,101489.22
2022-08-22T08:22:24.791Z,101485.09
2022-08-22T08:24:56.115Z,101477.16
2022-08-22T08:27:44.999Z,101477.66
2022-08-22T08:30:46.621Z,101467.97
2022-08-22T08:33:26.272Z,101464.91
2022-08-22T08:36:16.478Z,101469.41
2022-08-22T08:38:55.098Z,101463.91
2022-08-22T08:42:03.126Z,101474.69
2022-08-22T08:45:07.281Z,101466.56
2022-08-22T08:47:52.054Z,101470.88
2022-08-22T08:50:40.538Z,101472.22
2022-08-22T08:53:26.113Z,101469.34
2022-08-22T08:56:26.079Z,101463.47
2022-08-22T08:59:10.823Z,101462.50
2022-08-22T09:01:46.163Z,101463.59
2022-08-22T09:04:35.777Z,101456.22
2022-08-22T09:07:21.206Z,101463.69
2022-08-22T09:09:52.542Z,101461.81
2022-08-22T09:12:56.518Z,101463.78
2022-08-22T09:16:11.853Z,101462.38
2022-08-22T09:19:02.344Z,101461.78
2022-08-22T09:21:47.280Z,101460.09
2022-08-22T09:24:52.426Z,101462.09
2022-08-22T09:27:29.747Z,101457.25
2022-08-22T09:30:19.852Z,101457.28
2022-08-22T09:32:59.200Z,101453.91
2022-08-22T09:35:28.223Z,101458.47
2022-08-22T09:38:12.561Z,101452.94
2022-08-22T09:41:17.462Z,101457.63
2022-08-22T09:44:22.355Z,101451.66
2022-08-22T09:47:03.026Z,101448.47
2022-08-22T09:49:44.865Z,101458.69
2022-08-22T09:52:34.238Z,101447.00
2022-08-22T09:55:08.606Z,101444.03
2022-08-22T09:57:52.278Z,101447.84
2022-08-22T10:00:28.490Z,101443.38
2022-08-22T10:03:10.385Z,101441.69
2022-08-22T10:05:47.227Z,101445.09
2022-08-22T10:08:32.101Z,101437.84
2022-08-22T10:11:21.069Z,101437.84
2022-08-22T10:13:56.570Z,101431.44
2022-08-22T10:16:57.025Z,101434.88
2022-08-22T10:19:38.188Z,101420.84
2022-08-22T10:22:19.782Z,101424.44
2022-08-22T10:25:07.527Z,101417.19
2022-08-22T10:27:40.216Z,101424.44
2022-08-22T10:30:11.765Z,101413.16
2022-08-22T10:33:29.077Z,101409.56
2022-08-22T10:36:14.099Z,101408.03
2022-08-22T10:38:47.482Z,101415.25
2022-08-22T10:41:22.623Z,101394.16
2022-08-22T10:44:01.204Z,101409.47
2022-08-22T10:46:36.771Z,101399.44
2022-08-22T10:49:15.369Z,101407.28
2022-08-22T10:52:16.379Z,101407.25
2022-08-22T10:55:11.083Z,101401.25
2022-08-22T10:57:40.312Z,101402.06
2022-08-22T11:00:25.478Z,101402.72
2022-08-22T11:03:10.417Z,101400.59
2022-08-22T11:05:47.803Z,101397.56
2022-08-22T11:08:41.458Z,101398.34
2022-08-22T11:11:25.249Z,101398.31
2022-08-22T11:14:24.389Z,101397.22
2022-08-22T11:17:02.783Z,101389.25
2022-08-22T11:19:46.765Z,101390.69
2022-08-22T11:22:32.006Z,101375.94
2022-08-22T11:25:14.226Z,101396.72
2022-08-22T11:27:59.231Z,101388.19
2022-08-22T11:30:50.880Z,101387.94
2022-08-22T11:33:33.808Z,101380.38
2022-08-22T11:36:34.485Z,101383.78
2022-08-22T11:39:06.562Z,101373.00
2022-08-22T11:41:53.260Z,101383.19
2022-08-22T11:44:43.053Z,101384.25
2022-08-22T11:47:26.628Z,101373.56
2022-08-22T11:50:13.815Z,101380.78
2022-08-22T11:52:51.644Z,101371.63
2022-08-22T11:55:50.976Z,101368.63
2022-08-22T11:58:48.445Z,101364.59
2022-08-22T12:01:23.512Z,101363.00
2022-08-22T12:04:31.456Z,101358.81
2022-08-22T12:07:18.662Z,101352.13
2022-08-22T12:09:55.187Z,101358.25
2022-08-22T12:12:36.075Z,101353.38
2022-08-22T12:15:21.330Z,101349.16
2022-08-22T12:18:15.342Z,101348.22
2022-08-22T12:21:24.212Z,101346.69
2022-08-22T12:24:21.556Z,101344.59
2022-08-22T12:27:08.068Z,101350.63
2022-08-22T12:29:56.838Z,101345.06
2022-08-22T12:33:23.051Z,101352.19
2022-08-22T12:36:18.150Z,101346.03
2022-08-22T12:38:53.882Z,101352.31
2022-08-22T12:41:37.401Z,101345.44
2022-08-22T12:44:41.286Z,101339.28
2022-08-22T12:47:17.346Z,101342.16
2022-08-22T12:50:01.899Z,101334.78
2022-08-22T12:52:41.509Z,101333.94
2022-08-22T12:55:48.721Z,101326.81
2022-08-22T12:58:41.465Z,101332.13
2022-08-22T13:01:10.880Z,101333.59
2022-08-22T13:03:48.866Z,101335.28
2022-08-22T13:07:02.798Z,101332.50
2022-08-22T13:09:33.927Z,101325.00
2022-08-22T13:12:19.930Z,101323.00
2022-08-22T13:14:53.312Z,101325.63
2022-08-22T13:17:24.319Z,101320.31
2022-08-22T13:20:24.244Z,101319.47
2022-08-22T13:22:54.679Z,101321.03
2022-08-22T13:25:25.514Z,101318.22
2022-08-22T13:28:00.061Z,101315.66
2022-08-22T13:30:37.530Z,101317.34
2022-08-22T13:33:15.929Z,101312.41
2022-08-22T13:36:00.296Z,101308.78
2022-08-22T13:38:34.698Z,101304.94
2022-08-22T13:41:04.855Z,101303.63
2022-08-22T13:43:59.705Z,101294.91
2022-08-22T13:46:35.528Z,101298.31
2022-08-22T13:49:07.146Z,101290.22
2022-08-22T13:52:08.327Z,101289.84
2022-08-22T13:54:59.692Z,101296.94
2022-08-22T13:57:37.796Z,101301.03
2022-08-22T14:00:57.462Z,101298.88
2022-08-22T14:03:35.055Z,101299.09
2022-08-22T14:06:37.767Z,101292.72
2022-08-22T14:09:13.487Z,101293.31
2022-08-22T14:11:48.485Z,101283.06
2022-08-22T14:14:31.822Z,101298.63
2022-08-22T14:16:59.504Z,101284.06
2022-08-22T14:19:58.740Z,101287.66
2022-08-22T14:22:31.707Z,101285.41
2022-08-22T14:25:08.532Z,101280.47
2022-08-22T14:27:57.604Z,101283.38
2022-08-22T14:30:38.836Z,101281.81
2022-08-22T14:33:27.943Z,101279.56
2022-08-22T14:36:02.059Z,101280.69
2022-08-22T14:38:36.473Z,101282.75
2022-08-22T14:41:09.899Z,101278.41
2022-08-22T14:43:52.894Z,101269.22
2022-08-22T14:46:29.195Z,101269.81
2022-08-22T14:49:47.620Z,101267.66
2022-08-22T14:52:29.599Z,101261.53
2022-08-22T14:55:11.898Z,101261.03
2022-08-22T14:57:45.375Z,101263.69
2022-08-22T15:00:13.486Z,101259.97
2022-08-22T15:02:41.798Z,101260.34
2022-08-22T15:05:22.641Z,101251.28
2022-08-22T15:07:56.055Z,101252.00
2022-08-22T15:10:34.357Z,101255.38
2022-08-22T15:13:14.603Z,101241.84
2022-08-22T15:15:55.027Z,101245.81
2022-08-22T15:18:35.706Z,101242.81
2022-08-22T15:21:28.923Z,101242.81
2022-08-22T15:23:59.802Z,101238.34
2022-08-22T15:26:34.121Z,101246.19
2022-08-22T15:29:06.961Z,101241.22
2022-08-22T15:31:34.377Z,101244.59
2022-08-22T15:34:14.001Z,101239.19
2022-08-22T15:37:08.484Z,101237.25
2022-08-22T15:39:58.998Z,101239.81
2022-08-22T15:42:30.578Z,101243.78
2022-08-22T15:44:59.043Z,101241.34
2022-08-22T15:47:41.517Z,101236.16
2022-08-22T15:50:14.772Z,101231.44
2022-08-22T15:53:21.926Z,101230.84
2022-08-22T15:56:19.563Z,101236.88
2022-08-22T15:59:09.197Z,101229.47
2022-08-22T16:01:43.912Z,101228.75
2022-08-22T16:04:43.744Z,101233.09
2022-08-22T16:07:27.420Z,101218.59
2022-08-22T16:09:58.873Z,101222.47
2022-08-22T16:12:47.950Z,101215.53
2022-08-22T16:15:56.531Z,101219.88
2022-08-22T16:18:42.547Z,101223.50
2022-08-22T16:21:14.230Z,101224.59
2022-08-22T16:23:56.208Z,101215.28
2022-08-22T16:26:31.665Z,101207.06
2022-08-22T16:29:13.449Z,101212.47
2022-08-22T16:31:43.870Z,101206.31
2022-08-22T16:34:16.676Z,101197.63
2022-08-22T16:37:22.171Z,101201.72
2022-08-22T16:39:50.934Z,101201.13
2022-08-22T16:42:22.271Z,101197.72
2022-08-22T16:44:56.671Z,101196.16
2022-08-22T16:47:41.737Z,101201.75
2022-08-22T16:50:09.102Z,101195.84
2022-08-22T16:52:50.301Z,101193.91
2022-08-22T16:55:29.960Z,101185.91
2022-08-22T16:58:07.021Z,101189.63
2022-08-22T17:00:36.837Z,101189.72
2022-08-22T17:03:18.470Z,101183.41
2022-08-22T17:05:50.833Z,101178.81
2022-08-22T17:08:23.315Z,101184.44
2022-08-22T17:11:17.710Z,101185.59
2022-08-22T17:14:23.441Z,101180.38
2022-08-22T17:16:54.478Z,101183.22
2022-08-22T17:19:43.226Z,101171.31
2022-08-22T17:22:24.966Z,101166.94
2022-08-22T17:25:13.603Z,101164.47
2022-08-22T17:27:44.802Z,101166.25
2022-08-22T17:30:22.193Z,101169.31
2022-08-22T17:33:27.842Z,101168.31
2022-08-22T17:36:04.161Z,101173.09
2022-08-22T17:39:12.385Z,101166.59
2022-08-22T17:42:29.333Z,101169.19
2022-08-22T17:45:32.710Z,101176.94
2022-08-22T17:48:14.057Z,101173.13
2022-08-22T17:50:48.824Z,101176.81
2022-08-22T17:53:52.611Z,101180.09
2022-08-22T17:56:41.794Z,101190.59
2022-08-22T17:59:30.109Z,101188.75
2022-08-22T18:02:16.300Z,101198.16
2022-08-22T18:05:07.996Z,101197.19
2022-08-22T18:07:54.779Z,101193.84
2022-08-22T18:10:50.334Z,101199.41
2022-08-22T18:13:37.454Z,101201.78
2022-08-22T18:16:13.462Z,101197.56
2022-08-22T18:19:16.921Z,101205.47
2022-08-22T18:22:04.260Z,101212.31
2022-08-22T18:24:44.619Z,101209.78
2022-08-22T18:27:34.429Z,101212.81
2022-08-22T18:30:05.238Z,101208.78
2022-08-22T18:32:43.230Z,101212.78
2022-08-22T18:35:42.924Z,101218.53
2022-08-22T18:38:19.448Z,101230.03
2022-08-22T18:40:52.301Z,101222.59
2022-08-22T18:43:45.090Z,101229.41
2022-08-22T18:46:37.657Z,101231.31
2022-08-22T18:49:33.917Z,101231.09
2022-08-22T18:52:09.534Z,101234.06
2022-08-22T18:54:46.186Z,101238.94
2022-08-22T18:57:47.105Z,101239.94
2022-08-22T19:00:59.416Z,101235.69
2022-08-22T19:04:04.266Z,101244.81
2022-08-22T19:06:52.166Z,101241.19
2022-08-22T19:09:41.063Z,101246.03
2022-08-22T19:12:50.321Z,101253.66
2022-08-22T19:15:38.805Z,101259.16
2022-08-22T19:18:26.719Z,101264.81
2022-08-22T19:21:47.660Z,101265.00
2022-08-22T19:24:26.155Z,101264.97
2022-08-22T19:27:10.989Z,101264.47
2022-08-22T19:29:37.539Z,101266.13
2022-08-22T19:32:12.761Z,101262.28
2022-08-22T19:34:47.001Z,101262.91
2022-08-22T19:37:31.922Z,101268.81
2022-08-22T19:40:11.722Z,101268.38
2022-08-22T19:42:41.497Z,101257.75
2022-08-22T19:45:25.616Z,101266.44
2022-08-22T19:47:59.675Z,101264.94
2022-08-22T19:50:33.136Z,101261.53
2022-08-22T19:53:22.517Z,101269.78
2022-08-22T19:56:18.447Z,101271.41
2022-08-22T19:59:03.504Z,101265.91
2022-08-22T20:01:55.935Z,101264.84
2022-08-22T20:04:34.627Z,101257.00
2022-08-22T20:07:14.758Z,101252.75
2022-08-22T20:10:09.185Z,101251.25
2022-08-22T20:12:54.316Z,101250.59
2022-08-22T20:15:25.886Z,101261.63
2022-08-22T20:20:57.764Z,101253.97
2022-08-22T20:23:32.122Z,101246.75
2022-08-22T20:25:59.707Z,101249.91
2022-08-22T20:28:54.166Z,101249.91
2022-08-22T20:31:26.991Z,101253.50
2022-08-22T20:34:26.656Z,101248.41
2022-08-22T20:37:09.834Z,101248.41
2022-08-22T20:39:59.122Z,101244.16
2022-08-22T20:42:30.523Z,101247.75
2022-08-22T20:44:59.330Z,101250.91
2022-08-22T20:47:36.205Z,101245.59
2022-08-22T20:50:11.918Z,101248.34
2022-08-22T20:52:51.969Z,101246.84
2022-08-22T20:55:27.302Z,101249.63
2022-08-22T20:58:22.071Z,101250.84
2022-08-22T21:00:51.275Z,101248.94
2022-08-22T21:03:29.234Z,101243.81
2022-08-22T21:05:55.810Z,101245.06
2022-08-22T21:08:26.336Z,101238.91
2022-08-22T21:11:39.276Z,101239.13
2022-08-22T21:14:25.141Z,101245.69
2022-08-22T21:16:53.099Z,101240.16
2022-08-22T21:19:24.810Z,101242.47
2022-08-22T21:21:51.393Z,101243.53
2022-08-22T21:24:21.802Z,101251.31
2022-08-22T21:26:55.956Z,101240.72
2022-08-22T21:29:32.970Z,101245.56
2022-08-22T21:32:31.173Z,101234.13
2022-08-22T21:34:58.571Z,101236.88
2022-08-22T21:37:33.350Z,101238.13
2022-08-22T21:40:15.396Z,101231.31
2022-08-22T21:42:44.798Z,101238.22
2022-08-22T21:45:44.253Z,101227.81
2022-08-22T21:48:35.134Z,101234.75
2022-08-22T21:51:29.838Z,101237.25
2022-08-22T21:54:24.157Z,101238.22
2022-08-22T21:56:53.161Z,101239.66
2022-08-22T21:59:21.447Z,101235.81
2022-08-22T22:01:52.303Z,101235.34
2022-08-22T22:04:19.500Z,101235.72
2022-08-22T22:06:45.982Z,101235.25
2022-08-22T22:09:15.214Z,101236.69
2022-08-22T22:11:41.869Z,101238.97
2022-08-22T22:14:08.723Z,101235.75
2022-08-22T22:16:35.380Z,101238.91
2022-08-22T22:19:01.945Z,101237.38
2022-08-22T22:21:28.915Z,101237.78
2022-08-22T22:23:59.709Z,101239.88
2022-08-22T22:26:26.651Z,101241.28
2022-08-22T22:28:53.180Z,101234.47
2022-08-22T22:31:19.697Z,101239.50
2022-08-22T22:33:50.534Z,101242.81
2022-08-22T22:36:24.867Z,101239.41
2022-08-22T22:38:52.472Z,101238.09
2022-08-22T22:41:20.223Z,101239.13
2022-08-22T22:43:46.887Z,101246.72
2022-08-22T22:46:13.516Z,101241.78
2022-08-22T22:48:40.029Z,101241.13
2022-08-22T22:51:09.912Z,101236.22
2022-08-22T22:53:43.716Z,101237.66
2022-08-22T22:56:18.090Z,101247.50
2022-08-22T22:58:49.259Z,101242.53
2022-08-22T23:01:25.531Z,101242.25
2022-08-22T23:03:58.566Z,101237.53
2022-08-22T23:06:31.285Z,101237.91
2022-08-22T23:08:58.699Z,101236.59
2022-08-22T23:11:28.744Z,101240.72
2022-08-22T23:14:01.526Z,101241.09
2022-08-22T23:16:28.946Z,101239.78
2022-08-22T23:18:56.296Z,101240.34
2022-08-22T23:21:26.457Z,101242.78
2022-08-22T23:23:57.406Z,101246.09
2022-08-22T23:26:24.067Z,101242.88
2022-08-22T23:28:50.646Z,101241.34
2022-08-22T23:31:48.937Z,101239.56
2022-08-22T23:34:18.347Z,101246.25
2022-08-22T23:36:46.593Z,101240.47
2022-08-22T23:39:15.680Z,101242.75
2022-08-22T23:41:43.569Z,101243.63
2022-08-22T23:44:13.479Z,101241.81
2022-08-22T23:46:41.081Z,101240.66
2022-08-22T23:49:07.807Z,101244.97
2022-08-22T23:51:34.868Z,101241.75
2022-08-22T23:54:03.616Z,101231.50
2022-08-22T23:56:45.252Z,101229.31
2022-08-22T23:59:20.086Z,101228.84
